aviador You're here:

KGGE Decoded Metar

GEORGETOWN in SC, USA
Report Time2017-10-19 21:55:00
UTC Time2017-10-19 22:03:01
Flight Rules vfr VFR
Wind070° at 03 kt
W.Decomp.*RWY 05: 2.7 kt HW 1.3 kt RCW
RWY 11: 2.5 kt HW 1.7 kt LCW
W.Rank070° ranks 19
Current wind is below 070° avg. (6.8)
Visibility9999 m
Phenomena:N/A
Clouds:N/A
Expected CloudBase > 3,200 ft AGL from Temp-Dew spread
CeilingNone
Temp23°C (ISA +8)
Dew Point15°C (61% RH)
QNH1022 hPa
Density Alt902 ft
Elevation39 ft
Report Wrong Elevation
Raw Report
METAR KGGE 192155Z AUTO 07003KT 10SM CLR 23/15 A3019 RMK AO2=

Extra information for KGGE:More info

Metar Taf Metar & Taf Last 4 Metars F.Rules Stats Wind Profile Meteogram Temp Stats Airport Information Weather charts Add Link Nearby VenuesMetar ALERT Operation Metar Decoded Social comments

AIRNAV info for KGGE